sensor_id;sensor_type;location;lat;lon;timestamp;pressure;altitude;pressure_sealevel;temperature;humidity
37972;BME280;23794;48.234;8.344;2023-04-01T00:01:04;93122.44;;;5.60;76.96
37972;BME280;23794;48.234;8.344;2023-04-01T00:03:33;93117.38;;;5.62;77.48
37972;BME280;23794;48.234;8.344;2023-04-01T00:06:00;93116.56;;;5.73;75.84
37972;BME280;23794;48.234;8.344;2023-04-01T00:08:28;93113.81;;;5.80;76.35
37972;BME280;23794;48.234;8.344;2023-04-01T00:10:55;93122.34;;;5.78;76.10
37972;BME280;23794;48.234;8.344;2023-04-01T00:13:25;93117.69;;;5.79;75.39
37972;BME280;23794;48.234;8.344;2023-04-01T00:15:53;93117.75;;;5.68;75.31
37972;BME280;23794;48.234;8.344;2023-04-01T00:18:22;93119.28;;;5.73;75.97
37972;BME280;23794;48.234;8.344;2023-04-01T00:20:50;93111.91;;;5.66;75.93
37972;BME280;23794;48.234;8.344;2023-04-01T00:23:18;93103.75;;;5.70;76.50
37972;BME280;23794;48.234;8.344;2023-04-01T00:25:46;93106.13;;;5.64;76.15
37972;BME280;23794;48.234;8.344;2023-04-01T00:28:19;93115.09;;;5.54;76.40
37972;BME280;23794;48.234;8.344;2023-04-01T00:30:47;93112.38;;;5.57;76.21
37972;BME280;23794;48.234;8.344;2023-04-01T00:33:13;93106.19;;;5.46;77.71
37972;BME280;23794;48.234;8.344;2023-04-01T00:35:41;93103.47;;;5.49;77.46
37972;BME280;23794;48.234;8.344;2023-04-01T00:38:08;93102.72;;;5.45;77.21
37972;BME280;23794;48.234;8.344;2023-04-01T00:40:37;93115.91;;;5.43;76.86
37972;BME280;23794;48.234;8.344;2023-04-01T00:43:11;93101.19;;;5.41;77.05
37972;BME280;23794;48.234;8.344;2023-04-01T00:45:41;93108.16;;;5.42;76.61
37972;BME280;23794;48.234;8.344;2023-04-01T00:48:18;93109.69;;;5.46;77.15
37972;BME280;23794;48.234;8.344;2023-04-01T00:51:05;93102.75;;;5.38;77.32
37972;BME280;23794;48.234;8.344;2023-04-01T00:53:34;93098.50;;;5.30;78.25
37972;BME280;23794;48.234;8.344;2023-04-01T00:56:10;93098.91;;;5.28;77.73
37972;BME280;23794;48.234;8.344;2023-04-01T00:58:44;93083.00;;;5.30;77.71
37972;BME280;23794;48.234;8.344;2023-04-01T01:01:12;93097.34;;;5.31;78.05
37972;BME280;23794;48.234;8.344;2023-04-01T01:03:40;93099.63;;;5.36;78.17
37972;BME280;23794;48.234;8.344;2023-04-01T01:12:00;93092.28;;;5.40;78.49
37972;BME280;23794;48.234;8.344;2023-04-01T01:14:35;93093.44;;;5.39;78.74
37972;BME280;23794;48.234;8.344;2023-04-01T01:17:17;93091.88;;;5.38;79.11
37972;BME280;23794;48.234;8.344;2023-04-01T01:34:02;93079.50;;;5.26;78.56
37972;BME280;23794;48.234;8.344;2023-04-01T01:36:33;93081.84;;;5.21;79.29
37972;BME280;23794;48.234;8.344;2023-04-01T01:39:08;93093.13;;;5.19;79.26
37972;BME280;23794;48.234;8.344;2023-04-01T01:41:39;93090.81;;;5.14;79.48
37972;BME280;23794;48.234;8.344;2023-04-01T01:44:10;93091.63;;;5.00;79.41
37972;BME280;23794;48.234;8.344;2023-04-01T01:46:39;93088.13;;;5.03;80.07
37972;BME280;23794;48.234;8.344;2023-04-01T01:49:09;93093.56;;;4.99;79.29
37972;BME280;23794;48.234;8.344;2023-04-01T01:51:37;93083.88;;;5.02;78.93
37972;BME280;23794;48.234;8.344;2023-04-01T01:54:12;93081.53;;;5.04;79.63
37972;BME280;23794;48.234;8.344;2023-04-01T01:56:41;93074.56;;;5.03;79.60
37972;BME280;23794;48.234;8.344;2023-04-01T01:59:11;93072.59;;;5.11;79.62
37972;BME280;23794;48.234;8.344;2023-04-01T02:01:45;93083.06;;;5.09;79.22
37972;BME280;23794;48.234;8.344;2023-04-01T02:04:14;93078.41;;;5.09;79.70
37972;BME280;23794;48.234;8.344;2023-04-01T02:06:52;93075.31;;;5.11;79.53
37972;BME280;23794;48.234;8.344;2023-04-01T02:09:20;93086.56;;;5.13;79.91
37972;BME280;23794;48.234;8.344;2023-04-01T02:11:56;93084.59;;;5.17;80.50
37972;BME280;23794;48.234;8.344;2023-04-01T02:14:27;93083.41;;;5.18;79.62
37972;BME280;23794;48.234;8.344;2023-04-01T02:17:23;93082.25;;;5.19;79.81
37972;BME280;23794;48.234;8.344;2023-04-01T02:19:55;93074.16;;;5.08;80.21
37972;BME280;23794;48.234;8.344;2023-04-01T02:22:31;93062.91;;;5.10;80.37
37972;BME280;23794;48.234;8.344;2023-04-01T02:25:03;93062.88;;;5.13;79.50
37972;BME280;23794;48.234;8.344;2023-04-01T02:27:31;93072.56;;;5.14;79.79
37972;BME280;23794;48.234;8.344;2023-04-01T02:29:58;93083.03;;;5.12;79.73
37972;BME280;23794;48.234;8.344;2023-04-01T02:32:27;93083.03;;;5.12;80.35
37972;BME280;23794;48.234;8.344;2023-04-01T02:34:55;93074.09;;;5.23;79.82
37972;BME280;23794;48.234;8.344;2023-04-01T02:37:22;93083.03;;;5.16;80.40
37972;BME280;23794;48.234;8.344;2023-04-01T02:39:49;93084.22;;;5.15;80.74
37972;BME280;23794;48.234;8.344;2023-04-01T02:42:16;93085.72;;;5.23;80.03
37972;BME280;23794;48.234;8.344;2023-04-01T02:44:43;93082.25;;;5.19;79.76
37972;BME280;23794;48.234;8.344;2023-04-01T02:47:09;93076.41;;;5.21;80.37
37972;BME280;23794;48.234;8.344;2023-04-01T02:49:36;93087.25;;;5.28;80.23
37972;BME280;23794;48.234;8.344;2023-04-01T02:52:03;93095.03;;;5.26;80.38
37972;BME280;23794;48.234;8.344;2023-04-01T02:54:30;93099.31;;;5.19;80.59
37972;BME280;23794;48.234;8.344;2023-04-01T02:56:57;93092.41;;;5.08;81.33
37972;BME280;23794;48.234;8.344;2023-04-01T02:59:23;93081.50;;;5.15;81.30
37972;BME280;23794;48.234;8.344;2023-04-01T03:01:50;93080.28;;;5.23;81.15
37972;BME280;23794;48.234;8.344;2023-04-01T03:04:17;93086.91;;;5.26;80.39
37972;BME280;23794;48.234;8.344;2023-04-01T03:06:43;93080.31;;;5.27;80.34
37972;BME280;23794;48.234;8.344;2023-04-01T03:09:10;93092.31;;;5.29;80.48
37972;BME280;23794;48.234;8.344;2023-04-01T03:11:37;93089.94;;;5.35;80.35
37972;BME280;23794;48.234;8.344;2023-04-01T03:14:04;93083.00;;;5.34;79.91
37972;BME280;23794;48.234;8.344;2023-04-01T03:16:31;93084.94;;;5.30;79.66
37972;BME280;23794;48.234;8.344;2023-04-01T03:18:58;93075.63;;;5.27;80.02
37972;BME280;23794;48.234;8.344;2023-04-01T03:21:26;93075.66;;;5.20;80.09
37972;BME280;23794;48.234;8.344;2023-04-01T03:23:53;93075.69;;;5.16;80.03
37972;BME280;23794;48.234;8.344;2023-04-01T03:26:19;93082.25;;;5.19;80.00
37972;BME280;23794;48.234;8.344;2023-04-01T03:28:48;93086.94;;;5.15;80.29
37972;BME280;23794;48.234;8.344;2023-04-01T03:31:14;93088.88;;;5.14;79.87
37972;BME280;23794;48.234;8.344;2023-04-01T03:33:48;93094.72;;;5.06;80.04
37972;BME280;23794;48.234;8.344;2023-04-01T03:36:16;93085.41;;;5.07;79.98
37972;BME280;23794;48.234;8.344;2023-04-01T03:38:42;93090.44;;;5.05;79.58
37972;BME280;23794;48.234;8.344;2023-04-01T03:41:12;93087.75;;;5.05;79.72
37972;BME280;23794;48.234;8.344;2023-04-01T03:43:40;93081.13;;;5.09;79.40
37972;BME280;23794;48.234;8.344;2023-04-01T03:46:06;93093.56;;;5.07;79.56
37972;BME280;23794;48.234;8.344;2023-04-01T03:48:33;93085.41;;;5.07;79.43
37972;BME280;23794;48.234;8.344;2023-04-01T03:51:00;93081.13;;;4.98;78.81
37972;BME280;23794;48.234;8.344;2023-04-01T03:53:29;93090.88;;;4.99;79.57
37972;BME280;23794;48.234;8.344;2023-04-01T03:55:58;93088.50;;;4.94;79.85
37972;BME280;23794;48.234;8.344;2023-04-01T03:58:25;93097.44;;;4.91;79.50
37972;BME280;23794;48.234;8.344;2023-04-01T04:00:52;93090.47;;;4.90;79.95
37972;BME280;23794;48.234;8.344;2023-04-01T04:03:19;93083.88;;;4.87;79.70
37972;BME280;23794;48.234;8.344;2023-04-01T04:05:47;93075.75;;;4.84;79.81
37972;BME280;23794;48.234;8.344;2023-04-01T04:08:16;93079.63;;;4.86;79.21
37972;BME280;23794;48.234;8.344;2023-04-01T04:10:44;93078.81;;;4.93;79.10
37972;BME280;23794;48.234;8.344;2023-04-01T04:13:11;93092.38;;;4.93;79.20
37972;BME280;23794;48.234;8.344;2023-04-01T04:15:44;93067.19;;;4.93;79.36
37972;BME280;23794;48.234;8.344;2023-04-01T04:18:11;93085.03;;;4.90;78.92
37972;BME280;23794;48.234;8.344;2023-04-01T04:20:46;93083.88;;;4.95;79.31
37972;BME280;23794;48.234;8.344;2023-04-01T04:23:18;93085.03;;;4.90;80.00
37972;BME280;23794;48.234;8.344;2023-04-01T04:26:03;93052.47;;;4.94;78.07
37972;BME280;23794;48.234;8.344;2023-04-01T04:28:31;93067.94;;;4.97;77.95
37972;BME280;23794;48.234;8.344;2023-04-01T04:30:58;93064.88;;;4.95;78.26
37972;BME280;23794;48.234;8.344;2023-04-01T04:33:26;93063.31;;;4.94;78.91
37972;BME280;23794;48.234;8.344;2023-04-01T04:35:56;93070.69;;;4.90;79.92
37972;BME280;23794;48.234;8.344;2023-04-01T04:38:23;93071.06;;;4.92;79.09
37972;BME280;23794;48.234;8.344;2023-04-01T04:40:50;93082.72;;;4.89;79.00
37972;BME280;23794;48.234;8.344;2023-04-01T04:43:18;93070.31;;;4.87;78.41
37972;BME280;23794;48.234;8.344;2023-04-01T04:45:45;93072.22;;;4.91;78.69
37972;BME280;23794;48.234;8.344;2023-04-01T04:48:14;93074.94;;;4.94;78.91
37972;BME280;23794;48.234;8.344;2023-04-01T04:50:49;93074.16;;;4.97;78.88
37972;BME280;23794;48.234;8.344;2023-04-01T04:53:18;93074.56;;;4.96;78.08
37972;BME280;23794;48.234;8.344;2023-04-01T04:55:46;93067.59;;;4.95;77.30
37972;BME280;23794;48.234;8.344;2023-04-01T04:58:37;93057.13;;;5.04;77.22
37972;BME280;23794;48.234;8.344;2023-04-01T05:01:10;93054.38;;;5.00;78.44
37972;BME280;23794;48.234;8.344;2023-04-01T05:03:38;93061.34;;;5.05;77.20
37972;BME280;23794;48.234;8.344;2023-04-01T05:06:07;93073.00;;;4.98;78.30
37972;BME280;23794;48.234;8.344;2023-04-01T05:08:34;93074.56;;;4.99;78.69
37972;BME280;23794;48.234;8.344;2023-04-01T05:11:02;93074.19;;;5.01;78.17
37972;BME280;23794;48.234;8.344;2023-04-01T05:13:32;93050.50;;;4.98;78.26
37972;BME280;23794;48.234;8.344;2023-04-01T05:15:59;93057.13;;;5.04;77.67
37972;BME280;23794;48.234;8.344;2023-04-01T05:18:26;93059.03;;;5.07;78.11
37972;BME280;23794;48.234;8.344;2023-04-01T05:20:54;93068.72;;;5.12;78.71
37972;BME280;23794;48.234;8.344;2023-04-01T05:23:22;93055.13;;;5.12;78.60
37972;BME280;23794;48.234;8.344;2023-04-01T05:25:49;93053.97;;;5.16;77.53
37972;BME280;23794;48.234;8.344;2023-04-01T05:28:17;93054.75;;;5.13;77.97
37972;BME280;23794;48.234;8.344;2023-04-01T05:30:46;93062.84;;;5.21;78.00
37972;BME280;23794;48.234;8.344;2023-04-01T05:33:20;93062.84;;;5.24;76.68
37972;BME280;23794;48.234;8.344;2023-04-01T05:35:47;93064.41;;;5.18;77.90
37972;BME280;23794;48.234;8.344;2023-04-01T05:38:14;93076.41;;;5.24;78.17
37972;BME280;23794;48.234;8.344;2023-04-01T05:40:41;93064.00;;;5.19;77.67
37972;BME280;23794;48.234;8.344;2023-04-01T05:43:08;93061.28;;;5.27;77.90
37972;BME280;23794;48.234;8.344;2023-04-01T05:45:35;93062.81;;;5.28;78.31
37972;BME280;23794;48.234;8.344;2023-04-01T05:48:10;93068.25;;;5.24;77.93
37972;BME280;23794;48.234;8.344;2023-04-01T05:50:40;93065.94;;;5.26;78.16
37972;BME280;23794;48.234;8.344;2023-04-01T05:53:09;93059.31;;;5.31;77.86
37972;BME280;23794;48.234;8.344;2023-04-01T05:55:37;93058.97;;;5.22;78.32
37972;BME280;23794;48.234;8.344;2023-04-01T05:58:05;93062.84;;;5.24;78.53
37972;BME280;23794;48.234;8.344;2023-04-01T06:00:33;93051.59;;;5.29;78.20
37972;BME280;23794;48.234;8.344;2023-04-01T06:02:59;93058.59;;;5.19;78.94
37972;BME280;23794;48.234;8.344;2023-04-01T06:05:29;93064.00;;;5.19;79.41
37972;BME280;23794;48.234;8.344;2023-04-01T06:08:06;93051.63;;;5.22;77.77
37972;BME280;23794;48.234;8.344;2023-04-01T06:10:51;93058.16;;;5.32;78.37
37972;BME280;23794;48.234;8.344;2023-04-01T06:13:54;93051.13;;;5.42;78.32
37972;BME280;23794;48.234;8.344;2023-04-01T06:33:49;93048.84;;;5.37;77.23
37972;BME280;23794;48.234;8.344;2023-04-01T06:36:26;93044.91;;;5.48;77.47
37972;BME280;23794;48.234;8.344;2023-04-01T06:48:10;93044.16;;;5.41;77.30
37972;BME280;23794;48.234;8.344;2023-04-01T06:51:06;93035.56;;;5.53;78.12
37972;BME280;23794;48.234;8.344;2023-04-01T06:54:10;93039.00;;;5.57;78.61
37972;BME280;23794;48.234;8.344;2023-04-01T06:57:02;93033.22;;;5.52;77.96
37972;BME280;23794;48.234;8.344;2023-04-01T06:59:34;93039.06;;;5.50;77.90
37972;BME280;23794;48.234;8.344;2023-04-01T07:04:44;93041.69;;;5.64;76.23
37972;BME280;23794;48.234;8.344;2023-04-01T07:09:54;93028.09;;;5.68;75.87
37972;BME280;23794;48.234;8.344;2023-04-01T07:12:52;93039.34;;;5.70;76.27
37972;BME280;23794;48.234;8.344;2023-04-01T07:15:42;93038.22;;;5.64;75.09
37972;BME280;23794;48.234;8.344;2023-04-01T07:18:22;93045.97;;;5.62;76.05
37972;BME280;23794;48.234;8.344;2023-04-01T07:20:53;93045.53;;;5.67;75.28
37972;BME280;23794;48.234;8.344;2023-04-01T07:23:25;93053.38;;;5.54;76.92
37972;BME280;23794;48.234;8.344;2023-04-01T07:26:19;93044.13;;;5.44;76.39
37972;BME280;23794;48.234;8.344;2023-04-01T07:29:01;93053.09;;;5.38;77.49
37972;BME280;23794;48.234;8.344;2023-04-01T07:34:49;93063.97;;;5.34;76.45
37972;BME280;23794;48.234;8.344;2023-04-01T07:37:35;93058.50;;;5.41;76.92
37972;BME280;23794;48.234;8.344;2023-04-01T07:45:52;93056.53;;;5.45;78.32
37972;BME280;23794;48.234;8.344;2023-04-01T08:05:34;93057.88;;;5.82;77.66
37972;BME280;23794;48.234;8.344;2023-04-01T08:12:25;93062.84;;;5.95;76.07
37972;BME280;23794;48.234;8.344;2023-04-01T08:15:11;93067.00;;;6.10;75.42
37972;BME280;23794;48.234;8.344;2023-04-01T08:23:11;93074.88;;;5.97;76.57
37972;BME280;23794;48.234;8.344;2023-04-01T08:26:26;93079.06;;;6.09;76.27
37972;BME280;23794;48.234;8.344;2023-04-01T08:31:44;93075.63;;;6.02;74.76
37972;BME280;23794;48.234;8.344;2023-04-01T08:34:20;93081.44;;;6.04;74.91
37972;BME280;23794;48.234;8.344;2023-04-01T08:36:57;93081.81;;;6.06;76.05
37972;BME280;23794;48.234;8.344;2023-04-01T08:39:34;93077.06;;;6.17;76.89
37972;BME280;23794;48.234;8.344;2023-04-01T08:56:52;93089.78;;;6.31;75.87
37972;BME280;23794;48.234;8.344;2023-04-01T09:27:39;93103.88;;;6.11;77.58
37972;BME280;23794;48.234;8.344;2023-04-01T09:35:24;93110.16;;;6.08;76.30
37972;BME280;23794;48.234;8.344;2023-04-01T09:47:06;93113.59;;;6.12;77.76
37972;BME280;23794;48.234;8.344;2023-04-01T09:52:56;93111.66;;;6.13;78.17
37972;BME280;23794;48.234;8.344;2023-04-01T10:02:19;93111.56;;;6.27;77.72
37972;BME280;23794;48.234;8.344;2023-04-01T10:22:21;93141.03;;;6.36;77.63
37972;BME280;23794;48.234;8.344;2023-04-01T10:28:04;93131.25;;;6.42;76.98
37972;BME280;23794;48.234;8.344;2023-04-01T10:36:46;93145.16;;;6.55;77.51
37972;BME280;23794;48.234;8.344;2023-04-01T10:52:15;93126.16;;;6.48;76.74
37972;BME280;23794;48.234;8.344;2023-04-01T10:55:33;93128.38;;;6.64;77.36
37972;BME280;23794;48.234;8.344;2023-04-01T11:22:46;93142.84;;;7.37;74.98
37972;BME280;23794;48.234;8.344;2023-04-01T11:33:44;93153.31;;;7.01;75.06
37972;BME280;23794;48.234;8.344;2023-04-01T11:36:27;93148.59;;;7.05;76.32
37972;BME280;23794;48.234;8.344;2023-04-01T11:42:40;93162.78;;;6.85;75.68
37972;BME280;23794;48.234;8.344;2023-04-01T12:06:19;93170.38;;;7.05;75.98
37972;BME280;23794;48.234;8.344;2023-04-01T12:15:10;93174.22;;;6.69;74.30
37972;BME280;23794;48.234;8.344;2023-04-01T12:17:49;93169.88;;;6.75;75.70
37972;BME280;23794;48.234;8.344;2023-04-01T12:20:36;93165.47;;;6.92;75.67
37972;BME280;23794;48.234;8.344;2023-04-01T12:28:59;93178.16;;;7.10;74.23
37972;BME280;23794;48.234;8.344;2023-04-01T12:31:53;93166.31;;;7.24;73.26
37972;BME280;23794;48.234;8.344;2023-04-01T12:34:35;93161.91;;;7.37;73.34
37972;BME280;23794;48.234;8.344;2023-04-01T12:37:29;93161.22;;;7.68;72.37
37972;BME280;23794;48.234;8.344;2023-04-01T12:40:07;93166.94;;;7.77;72.21
37972;BME280;23794;48.234;8.344;2023-04-01T12:43:02;93153.00;;;7.71;71.71
37972;BME280;23794;48.234;8.344;2023-04-01T12:45:36;93160.75;;;7.73;72.48
37972;BME280;23794;48.234;8.344;2023-04-01T13:29:10;93179.56;;;7.64;73.76
37972;BME280;23794;48.234;8.344;2023-04-01T13:42:26;93164.00;;;7.95;73.35
37972;BME280;23794;48.234;8.344;2023-04-01T13:53:07;93178.69;;;8.32;72.28
37972;BME280;23794;48.234;8.344;2023-04-01T13:58:50;93170.88;;;8.62;72.01
37972;BME280;23794;48.234;8.344;2023-04-01T14:01:37;93179.56;;;8.53;71.66
37972;BME280;23794;48.234;8.344;2023-04-01T14:20:00;93186.97;;;8.80;70.40
37972;BME280;23794;48.234;8.344;2023-04-01T14:25:43;93174.28;;;8.93;70.41
37972;BME280;23794;48.234;8.344;2023-04-01T14:31:20;93189.81;;;8.73;69.24
37972;BME280;23794;48.234;8.344;2023-04-01T14:36:47;93187.38;;;8.55;70.90
37972;BME280;23794;48.234;8.344;2023-04-01T14:39:48;93191.22;;;8.57;70.73
37972;BME280;23794;48.234;8.344;2023-04-01T14:50:41;93196.31;;;8.28;70.55
37972;BME280;23794;48.234;8.344;2023-04-01T14:56:01;93198.50;;;8.36;70.86
37972;BME280;23794;48.234;8.344;2023-04-01T14:58:50;93200.00;;;8.41;72.63
37972;BME280;23794;48.234;8.344;2023-04-01T15:04:47;93184.38;;;8.45;70.92
37972;BME280;23794;48.234;8.344;2023-04-01T15:07:21;93193.41;;;8.66;72.10
37972;BME280;23794;48.234;8.344;2023-04-01T15:12:59;93194.16;;;8.70;71.87
37972;BME280;23794;48.234;8.344;2023-04-01T15:18:12;93181.47;;;8.83;70.88
37972;BME280;23794;48.234;8.344;2023-04-01T15:21:17;93181.16;;;9.02;70.57
37972;BME280;23794;48.234;8.344;2023-04-01T15:34:42;93182.78;;;9.23;68.49
37972;BME280;23794;48.234;8.344;2023-04-01T15:37:20;93194.16;;;9.18;69.37
37972;BME280;23794;48.234;8.344;2023-04-01T15:45:58;93196.50;;;9.19;69.30
37972;BME280;23794;48.234;8.344;2023-04-01T15:51:26;93209.78;;;8.93;68.09
37972;BME280;23794;48.234;8.344;2023-04-01T16:02:46;93199.84;;;8.52;70.63
37972;BME280;23794;48.234;8.344;2023-04-01T16:11:43;93202.25;;;8.50;70.63
37972;BME280;23794;48.234;8.344;2023-04-01T16:20:02;93209.75;;;8.11;70.94
37972;BME280;23794;48.234;8.344;2023-04-01T16:22:38;93223.06;;;8.09;70.73
37972;BME280;23794;48.234;8.344;2023-04-01T16:25:41;93217.94;;;8.11;71.47
37972;BME280;23794;48.234;8.344;2023-04-01T16:33:47;93218.88;;;8.01;70.37
37972;BME280;23794;48.234;8.344;2023-04-01T16:36:26;93211.03;;;8.03;71.86
37972;BME280;23794;48.234;8.344;2023-04-01T16:41:47;93216.66;;;7.88;72.18
37972;BME280;23794;48.234;8.344;2023-04-01T16:47:49;93233.00;;;7.88;71.13
37972;BME280;23794;48.234;8.344;2023-04-01T16:50:21;93221.00;;;7.82;71.74
37972;BME280;23794;48.234;8.344;2023-04-01T16:56:03;93242.22;;;7.67;73.55
37972;BME280;23794;48.234;8.344;2023-04-01T16:58:46;93246.88;;;7.67;72.98
37972;BME280;23794;48.234;8.344;2023-04-01T17:01:21;93247.72;;;7.64;72.60
37972;BME280;23794;48.234;8.344;2023-04-01T17:03:52;93241.84;;;7.65;72.38
37972;BME280;23794;48.234;8.344;2023-04-01T17:06:31;93245.09;;;7.53;71.62
37972;BME280;23794;48.234;8.344;2023-04-01T17:14:59;93240.75;;;7.14;72.24
37972;BME280;23794;48.234;8.344;2023-04-01T17:20:11;93249.41;;;6.98;74.32
37972;BME280;23794;48.234;8.344;2023-04-01T17:34:00;93266.84;;;6.55;74.87
37972;BME280;23794;48.234;8.344;2023-04-01T17:53:01;93300.03;;;6.17;78.00
37972;BME280;23794;48.234;8.344;2023-04-01T17:58:29;93297.72;;;6.16;75.84
37972;BME280;23794;48.234;8.344;2023-04-01T18:01:15;93302.78;;;6.10;77.05
37972;BME280;23794;48.234;8.344;2023-04-01T18:15:26;93300.19;;;5.70;77.69
37972;BME280;23794;48.234;8.344;2023-04-01T18:20:46;93298.97;;;5.86;77.18
37972;BME280;23794;48.234;8.344;2023-04-01T18:23:29;93298.59;;;5.76;78.87
37972;BME280;23794;48.234;8.344;2023-04-01T18:26:05;93306.38;;;5.74;78.46
37972;BME280;23794;48.234;8.344;2023-04-01T18:28:44;93313.00;;;5.62;78.74
37972;BME280;23794;48.234;8.344;2023-04-01T18:31:19;93309.13;;;5.60;78.90
37972;BME280;23794;48.234;8.344;2023-04-01T18:36:47;93305.66;;;5.52;79.58
37972;BME280;23794;48.234;8.344;2023-04-01T18:39:37;93313.41;;;5.46;79.75
37972;BME280;23794;48.234;8.344;2023-04-01T18:45:10;93321.56;;;5.46;79.66
37972;BME280;23794;48.234;8.344;2023-04-01T18:47:44;93326.59;;;5.44;79.89
37972;BME280;23794;48.234;8.344;2023-04-01T18:50:41;93330.47;;;5.32;79.98
37972;BME280;23794;48.234;8.344;2023-04-01T18:53:34;93338.63;;;5.32;80.44
37972;BME280;23794;48.234;8.344;2023-04-01T18:59:00;93348.72;;;5.36;80.64
37972;BME280;23794;48.234;8.344;2023-04-01T19:06:56;93351.44;;;5.46;80.47
37972;BME280;23794;48.234;8.344;2023-04-01T19:26:12;93371.22;;;5.61;80.31
37972;BME280;23794;48.234;8.344;2023-04-01T19:50:20;93382.47;;;5.24;80.24
37972;BME280;23794;48.234;8.344;2023-04-01T19:52:56;93373.53;;;5.12;80.50
37972;BME280;23794;48.234;8.344;2023-04-01T20:06:35;93382.06;;;5.11;80.73
37972;BME280;23794;48.234;8.344;2023-04-01T20:14:54;93396.78;;;5.10;81.02
37972;BME280;23794;48.234;8.344;2023-04-01T20:17:41;93394.84;;;4.99;81.23
37972;BME280;23794;48.234;8.344;2023-04-01T20:27:48;93407.66;;;5.13;80.64
37972;BME280;23794;48.234;8.344;2023-04-01T20:48:11;93425.09;;;5.12;80.92
37972;BME280;23794;48.234;8.344;2023-04-01T20:50:52;93424.75;;;5.14;80.49
37972;BME280;23794;48.234;8.344;2023-04-01T21:01:51;93437.16;;;5.15;80.20
37972;BME280;23794;48.234;8.344;2023-04-01T21:04:44;93441.81;;;5.22;79.65
37972;BME280;23794;48.234;8.344;2023-04-01T21:09:55;93443.00;;;5.35;79.45
37972;BME280;23794;48.234;8.344;2023-04-01T21:12:48;93446.09;;;5.41;79.77
37972;BME280;23794;48.234;8.344;2023-04-01T21:56:05;93499.25;;;5.34;80.77
37972;BME280;23794;48.234;8.344;2023-04-01T21:59:04;93502.72;;;5.35;80.81
37972;BME280;23794;48.234;8.344;2023-04-01T22:04:31;93498.09;;;5.28;80.30
37972;BME280;23794;48.234;8.344;2023-04-01T22:13:10;93498.81;;;5.18;80.37
37972;BME280;23794;48.234;8.344;2023-04-01T22:18:26;93497.63;;;5.12;80.89
37972;BME280;23794;48.234;8.344;2023-04-01T22:20:59;93502.69;;;5.13;80.66
37972;BME280;23794;48.234;8.344;2023-04-01T22:24:05;93489.13;;;5.17;81.24
37972;BME280;23794;48.234;8.344;2023-04-01T22:27:20;93505.03;;;5.18;80.81
37972;BME280;23794;48.234;8.344;2023-04-01T22:30:04;93508.53;;;5.19;81.26
37972;BME280;23794;48.234;8.344;2023-04-01T22:32:44;93505.41;;;5.17;81.79
37972;BME280;23794;48.234;8.344;2023-04-01T22:48:54;93517.38;;;5.05;82.74
37972;BME280;23794;48.234;8.344;2023-04-01T22:54:20;93530.22;;;5.15;81.79
37972;BME280;23794;48.234;8.344;2023-04-01T22:56:55;93522.84;;;5.19;81.63
37972;BME280;23794;48.234;8.344;2023-04-01T22:59:32;93521.34;;;5.22;81.64
37972;BME280;23794;48.234;8.344;2023-04-01T23:02:16;93515.53;;;5.24;81.31
37972;BME280;23794;48.234;8.344;2023-04-01T23:04:50;93515.91;;;5.26;81.60
37972;BME280;23794;48.234;8.344;2023-04-01T23:07:59;93526.78;;;5.22;81.57
37972;BME280;23794;48.234;8.344;2023-04-01T23:10:30;93536.09;;;5.28;81.47
37972;BME280;23794;48.234;8.344;2023-04-01T23:13:12;93529.53;;;5.37;80.72
37972;BME280;23794;48.234;8.344;2023-04-01T23:15:41;93533.00;;;5.30;81.84
37972;BME280;23794;48.234;8.344;2023-04-01T23:20:53;93535.31;;;5.35;81.40
37972;BME280;23794;48.234;8.344;2023-04-01T23:23:35;93529.53;;;5.33;81.82
37972;BME280;23794;48.234;8.344;2023-04-01T23:26:17;93533.00;;;5.37;81.44
37972;BME280;23794;48.234;8.344;2023-04-01T23:31:41;93532.25;;;5.44;81.42
37972;BME280;23794;48.234;8.344;2023-04-01T23:36:44;93540.41;;;5.37;80.34
37972;BME280;23794;48.234;8.344;2023-04-01T23:41:48;93534.59;;;5.53;80.83
37972;BME280;23794;48.234;8.344;2023-04-01T23:44:15;93540.44;;;5.51;81.16
37972;BME280;23794;48.234;8.344;2023-04-01T23:46:44;93536.91;;;5.47;81.46
37972;BME280;23794;48.234;8.344;2023-04-01T23:49:21;93533.84;;;5.48;81.31
37972;BME280;23794;48.234;8.344;2023-04-01T23:51:56;93538.88;;;5.46;81.47
37972;BME280;23794;48.234;8.344;2023-04-01T23:54:39;93543.91;;;5.52;81.39
37972;BME280;23794;48.234;8.344;2023-04-01T23:57:14;93550.50;;;5.47;80.35
37972;BME280;23794;48.234;8.344;2023-04-01T23:59:42;93538.09;;;5.49;80.86
